Time;durP1;ratioP1;P1;durP2;ratioP2;P2;SDS_P1;SDS_P2;PMS_P1;PMS_P2;Temp;Humidity;BMP_temperature;BMP_pressure;BME280_temperature;BME280_humidity;BME280_pressure;Samples;Min_cycle;Max_cycle;Signal;HPM_P1;HPM_P2
2021/10/04 00:01:07;;;;;;;58.90;38.05;;;7.10;92.00;;;;;;5013143;28;20050;-81
2021/10/04 00:03:33;;;;;;;67.97;40.10;;;7.00;92.10;;;;;;5013331;28;20053;-81
2021/10/04 00:06:00;;;;;;;72.68;39.75;;;7.00;92.10;;;;;;5012495;28;20026;-81
2021/10/04 00:08:26;;;;;;;67.77;40.07;;;6.90;92.20;;;;;;5013220;28;20029;-80
2021/10/04 00:10:52;;;;;;;67.60;38.72;;;6.90;92.30;;;;;;5013186;28;20041;-80
2021/10/04 00:13:19;;;;;;;67.18;41.65;;;6.90;92.40;;;;;;5013276;28;20031;-80
2021/10/04 00:15:46;;;;;;;68.18;40.42;;;6.90;92.40;;;;;;5013206;28;20485;-80
2021/10/04 00:18:12;;;;;;;65.07;40.15;;;6.90;92.40;;;;;;5013450;28;20098;-80
2021/10/04 00:20:38;;;;;;;65.90;39.85;;;6.90;92.40;;;;;;5006854;28;20029;-79
2021/10/04 00:23:05;;;;;;;60.88;38.78;;;6.90;92.40;;;;;;5013074;28;20383;-80
2021/10/04 00:25:31;;;;;;;74.50;41.88;;;6.80;92.50;;;;;;5012733;28;20022;-80
2021/10/04 00:27:58;;;;;;;65.65;39.63;;;6.80;92.50;;;;;;5002616;28;20027;-80
2021/10/04 00:30:24;;;;;;;63.22;38.10;;;6.80;92.60;;;;;;4992330;28;20172;-81
2021/10/04 00:32:51;;;;;;;67.38;41.72;;;6.80;92.70;;;;;;4990116;28;20452;-82
2021/10/04 00:35:18;;;;;;;;;;;6.70;92.70;;;;;;5009237;28;20502;-81
2021/10/04 00:37:45;;;;;;;63.37;37.07;;;6.70;92.50;;;;;;5012755;28;19977;-81
2021/10/04 00:40:14;;;;;;;69.10;41.05;;;6.70;92.70;;;;;;5013120;28;20018;-80
2021/10/04 00:42:40;;;;;;;72.90;42.67;;;6.70;92.80;;;;;;5012936;28;20050;-80
2021/10/04 00:45:08;;;;;;;69.22;41.70;;;6.60;92.80;;;;;;5012848;28;20030;-81
2021/10/04 00:47:34;;;;;;;71.75;42.50;;;6.60;92.90;;;;;;5013075;28;20026;-80
2021/10/04 00:50:00;;;;;;;66.15;42.08;;;6.60;92.90;;;;;;5012968;28;20399;-81
2021/10/04 00:52:27;;;;;;;79.18;44.17;;;6.60;92.90;;;;;;5013446;28;20026;-80
2021/10/04 00:54:52;;;;;;;70.75;42.97;;;6.60;92.90;;;;;;4995878;28;20025;-79
2021/10/04 00:57:19;;;;;;;74.15;44.53;;;6.50;92.90;;;;;;5012676;28;20522;-80
2021/10/04 00:59:45;;;;;;;73.03;44.47;;;6.50;92.90;;;;;;5012852;28;20481;-79
2021/10/04 01:02:11;;;;;;;68.55;40.38;;;6.50;93.00;;;;;;4996411;28;20367;-81
2021/10/04 01:04:37;;;;;;;69.25;42.33;;;6.50;93.00;;;;;;5012995;28;20078;-80
2021/10/04 01:07:03;;;;;;;73.20;41.90;;;6.50;93.00;;;;;;5012800;28;20527;-81
2021/10/04 01:09:29;;;;;;;65.05;40.55;;;6.50;93.00;;;;;;5012879;28;20089;-83
2021/10/04 01:11:58;;;;;;;88.47;44.80;;;6.50;93.00;;;;;;5013039;28;20384;-82
2021/10/04 01:14:24;;;;;;;67.28;41.55;;;6.50;93.00;;;;;;4995724;28;20029;-80
2021/10/04 01:16:52;;;;;;;74.70;39.90;;;6.50;93.00;;;;;;5016131;28;20014;-82
2021/10/04 01:19:18;;;;;;;66.45;38.90;;;6.40;93.00;;;;;;5019948;28;20279;-81
2021/10/04 01:21:44;;;;;;;73.78;40.70;;;6.50;93.10;;;;;;5017750;28;20022;-83
2021/10/04 01:24:11;;;;;;;67.63;40.05;;;6.40;93.10;;;;;;5016489;28;20025;-83
2021/10/04 01:26:37;;;;;;;80.75;42.03;;;6.50;93.10;;;;;;5016873;28;20033;-81
2021/10/04 01:29:04;;;;;;;62.15;35.58;;;6.50;93.10;;;;;;5016321;28;20041;-81
2021/10/04 01:31:30;;;;;;;64.68;36.28;;;6.50;93.00;;;;;;4998596;28;20072;-82
2021/10/04 01:33:57;;;;;;;63.63;39.08;;;6.50;93.00;;;;;;5018314;28;20060;-81
2021/10/04 01:36:25;;;;;;;61.80;38.83;;;6.50;93.00;;;;;;5021202;28;20030;-82
2021/10/04 01:38:52;;;;;;;67.75;40.10;;;6.50;93.00;;;;;;5016454;28;20069;-81
2021/10/04 01:41:18;;;;;;;71.50;40.00;;;6.50;93.30;;;;;;5016285;28;20021;-81
2021/10/04 01:43:44;;;;;;;68.80;41.75;;;6.50;93.00;;;;;;5016220;28;20485;-79
2021/10/04 01:46:10;;;;;;;68.57;39.60;;;6.40;93.10;;;;;;5015994;28;20018;-80
2021/10/04 01:48:36;;;;;;;69.10;39.53;;;6.40;93.10;;;;;;5015747;28;20160;-80
2021/10/04 01:51:02;;;;;;;69.93;39.88;;;6.40;93.20;;;;;;5015921;28;20483;-80
2021/10/04 01:53:28;;;;;;;62.05;37.30;;;6.30;93.30;;;;;;5015900;28;20033;-80
2021/10/04 01:55:54;;;;;;;68.40;39.42;;;6.30;93.30;;;;;;5015814;28;20399;-81
2021/10/04 01:58:20;;;;;;;75.53;33.92;;;6.30;93.40;;;;;;5015691;28;20085;-82
2021/10/04 02:00:47;;;;;;;60.55;33.33;;;6.30;93.30;;;;;;5015614;28;20129;-80
2021/10/04 02:03:13;;;;;;;52.22;32.40;;;6.30;93.30;;;;;;5016017;28;20030;-80
2021/10/04 02:05:38;;;;;;;67.70;37.78;;;6.30;93.20;;;;;;5015714;28;20018;-80
2021/10/04 02:08:05;;;;;;;64.00;35.15;;;6.30;93.20;;;;;;5015656;28;20414;-80
2021/10/04 02:10:36;;;;;;;58.88;32.92;;;6.30;93.20;;;;;;5015447;28;20455;-80
2021/10/04 02:13:03;;;;;;;60.45;34.38;;;6.30;93.20;;;;;;5015423;28;20028;-81
2021/10/04 02:15:29;;;;;;;53.75;31.92;;;6.30;93.10;;;;;;5015254;28;20569;-82
2021/10/04 02:17:56;;;;;;;53.05;31.30;;;6.30;93.00;;;;;;5015422;28;20108;-81
2021/10/04 02:20:25;;;;;;;64.05;29.92;;;6.30;93.00;;;;;;5015952;28;20022;-81
2021/10/04 02:22:51;;;;;;;50.42;32.50;;;6.40;92.90;;;;;;5015728;28;20493;-82
2021/10/04 02:25:18;;;;;;;64.95;34.85;;;6.30;92.80;;;;;;4998277;28;20506;-80
2021/10/04 02:27:45;;;;;;;55.43;31.57;;;6.30;92.80;;;;;;5015140;28;20029;-81
2021/10/04 02:30:22;;;;;;;51.58;31.42;;;6.30;92.80;;;;;;5014823;28;20121;-81
2021/10/04 02:32:48;;;;;;;52.15;30.95;;;6.30;92.80;;;;;;5014914;28;20060;-80
2021/10/04 02:35:14;;;;;;;48.28;27.67;;;6.30;92.80;;;;;;5015554;28;20037;-81
2021/10/04 02:37:41;;;;;;;46.17;28.73;;;6.30;92.80;;;;;;5014476;28;20526;-81
2021/10/04 02:40:09;;;;;;;52.92;29.88;;;6.30;92.80;;;;;;5015919;28;20125;-80
2021/10/04 02:42:36;;;;;;;58.05;33.13;;;6.20;92.80;;;;;;5015038;28;20022;-81
2021/10/04 02:45:03;;;;;;;55.07;32.27;;;6.20;92.80;;;;;;5015229;28;20025;-82
2021/10/04 02:47:29;;;;;;;52.60;31.38;;;6.30;92.90;;;;;;5015120;28;20028;-81
2021/10/04 02:49:55;;;;;;;55.15;31.13;;;6.20;92.90;;;;;;5015042;28;20044;-82
2021/10/04 02:52:21;;;;;;;59.97;34.78;;;6.20;93.00;;;;;;5014851;28;20105;-83
2021/10/04 02:54:48;;;;;;;51.90;31.02;;;6.20;93.00;;;;;;5014662;28;20100;-82
2021/10/04 02:57:14;;;;;;;50.15;32.08;;;6.20;93.00;;;;;;5014645;28;20014;-82
2021/10/04 02:59:40;;;;;;;52.25;27.88;;;6.20;93.00;;;;;;4997061;28;20545;-82
2021/10/04 03:02:06;;;;;;;47.67;29.20;;;6.20;92.90;;;;;;4997304;28;20030;-82
2021/10/04 03:04:32;;;;;;;48.78;29.38;;;6.20;92.80;;;;;;5014918;28;20434;-80
2021/10/04 03:06:58;;;;;;;49.78;28.02;;;6.20;92.70;;;;;;5014473;28;20018;-80
2021/10/04 03:09:24;;;;;;;54.03;29.02;;;6.20;92.70;;;;;;5015210;28;20085;-80
2021/10/04 03:11:50;;;;;;;50.75;32.22;;;6.20;92.60;;;;;;5014380;28;20076;-80
2021/10/04 03:14:16;;;;;;;49.50;27.75;;;6.20;92.60;;;;;;4996376;28;20065;-80
2021/10/04 03:16:42;;;;;;;47.25;27.25;;;6.20;92.50;;;;;;5014218;28;20026;-79
2021/10/04 03:19:08;;;;;;;50.75;28.35;;;6.20;92.50;;;;;;5014196;28;20087;-80
2021/10/04 03:21:33;;;;;;;41.35;25.75;;;6.20;92.50;;;;;;5013957;28;20025;-81
2021/10/04 03:23:59;;;;;;;43.00;24.88;;;6.20;92.40;;;;;;5014030;28;20032;-80
2021/10/04 03:26:25;;;;;;;39.60;22.95;;;6.20;92.20;;;;;;5013862;28;20026;-80
2021/10/04 03:28:51;;;;;;;39.63;20.50;;;6.20;92.10;;;;;;5016281;28;20033;-81
2021/10/04 03:31:18;;;;;;;38.42;24.30;;;6.20;92.00;;;;;;5019644;28;20022;-80
2021/10/04 03:33:45;;;;;;;34.45;21.80;;;6.20;92.00;;;;;;5019901;28;20104;-80
2021/10/04 03:36:10;;;;;;;45.10;24.35;;;6.10;92.00;;;;;;5016934;28;20084;-80
2021/10/04 03:38:36;;;;;;;39.33;24.05;;;6.10;92.00;;;;;;4996585;28;20025;-81
2021/10/04 03:41:03;;;;;;;41.20;24.10;;;6.10;92.00;;;;;;5013034;28;20068;-80
2021/10/04 03:43:28;;;;;;;36.03;21.30;;;6.10;91.90;;;;;;5013607;28;20030;-80
2021/10/04 03:45:55;;;;;;;45.05;24.63;;;6.10;91.90;;;;;;5013898;28;20092;-80
2021/10/04 03:48:21;;;;;;;42.28;25.30;;;6.10;91.90;;;;;;5013647;28;20018;-81
2021/10/04 03:50:47;;;;;;;48.33;25.48;;;6.10;92.00;;;;;;5013658;28;20037;-79
2021/10/04 03:53:14;;;;;;;53.00;29.27;;;6.10;92.20;;;;;;5013964;28;20383;-82
2021/10/04 03:55:40;;;;;;;46.65;28.33;;;6.10;92.20;;;;;;5014302;28;20071;-81
2021/10/04 03:58:06;;;;;;;50.63;29.20;;;6.10;92.20;;;;;;5013728;28;20026;-81
2021/10/04 04:00:32;;;;;;;55.72;28.90;;;6.10;92.30;;;;;;5013546;28;20061;-80
2021/10/04 04:02:57;;;;;;;41.42;26.23;;;6.20;92.40;;;;;;5013257;28;20025;-80
2021/10/04 04:05:24;;;;;;;42.40;21.80;;;6.20;92.40;;;;;;5013583;28;20028;-80
2021/10/04 04:07:50;;;;;;;49.22;27.73;;;6.20;92.10;;;;;;5014087;28;20526;-81
2021/10/04 04:10:16;;;;;;;42.58;25.65;;;6.20;92.10;;;;;;5014247;28;20116;-81
2021/10/04 04:12:43;;;;;;;42.22;25.00;;;6.20;92.10;;;;;;4996241;28;20471;-79
2021/10/04 04:15:11;;;;;;;45.97;25.83;;;6.30;92.10;;;;;;5013858;28;20029;-80
2021/10/04 04:17:37;;;;;;;;;;;6.30;92.10;;;;;;5016689;28;20041;-82
2021/10/04 04:20:04;;;;;;;40.92;26.30;;;6.30;92.00;;;;;;5016569;28;19937;-82
2021/10/04 04:22:30;;;;;;;34.83;22.13;;;6.20;91.80;;;;;;5016880;28;20025;-82
2021/10/04 04:24:56;;;;;;;35.08;23.40;;;6.20;91.70;;;;;;5013394;28;20490;-79
2021/10/04 04:27:24;;;;;;;40.85;23.77;;;6.30;91.70;;;;;;5013240;28;20080;-79
2021/10/04 04:29:50;;;;;;;34.95;20.83;;;6.30;91.70;;;;;;5013379;28;20125;-80
2021/10/04 04:32:17;;;;;;;35.88;20.75;;;6.20;91.60;;;;;;5013042;28;20033;-82
2021/10/04 04:34:43;;;;;;;41.42;24.35;;;6.30;91.50;;;;;;5013126;28;20030;-80
2021/10/04 04:37:09;;;;;;;44.53;24.95;;;6.30;91.50;;;;;;5012225;28;20029;-82
2021/10/04 04:39:35;;;;;;;43.60;23.40;;;6.30;91.50;;;;;;5013266;28;20033;-81
2021/10/04 04:42:03;;;;;;;44.00;23.23;;;6.30;91.40;;;;;;5012976;28;20092;-81
2021/10/04 04:44:29;;;;;;;42.58;24.90;;;6.50;91.40;;;;;;5012941;28;20105;-81
2021/10/04 04:46:54;;;;;;;37.90;22.05;;;6.50;91.30;;;;;;5013124;28;20110;-81
2021/10/04 04:49:20;;;;;;;43.47;22.75;;;6.50;91.10;;;;;;5012891;28;20038;-81
2021/10/04 04:51:46;;;;;;;36.72;24.30;;;6.50;91.00;;;;;;5014439;28;20482;-82
2021/10/04 04:54:12;;;;;;;37.72;23.27;;;6.60;90.90;;;;;;5017699;28;20080;-81
2021/10/04 04:56:38;;;;;;;45.67;26.48;;;6.70;90.90;;;;;;5016469;28;20077;-82
2021/10/04 04:59:04;;;;;;;44.90;24.98;;;6.70;90.80;;;;;;5016583;28;20026;-82
2021/10/04 05:01:30;;;;;;;37.53;24.63;;;6.80;90.70;;;;;;5017075;28;20030;-82
2021/10/04 05:03:56;;;;;;;42.03;27.50;;;6.80;90.60;;;;;;5016751;28;20076;-83
2021/10/04 05:06:22;;;;;;;36.90;22.38;;;6.80;90.60;;;;;;5010771;28;20025;-81
2021/10/04 05:08:48;;;;;;;30.73;19.85;;;6.80;90.40;;;;;;5016344;28;20426;-82
2021/10/04 05:11:14;;;;;;;34.50;22.58;;;6.80;90.20;;;;;;5016574;28;20025;-82
2021/10/04 05:13:40;;;;;;;37.17;21.65;;;6.70;90.20;;;;;;5016567;28;20095;-83
2021/10/04 05:16:06;;;;;;;36.25;21.30;;;6.70;90.20;;;;;;5013507;28;20526;-81
2021/10/04 05:18:31;;;;;;;35.38;20.85;;;6.70;90.20;;;;;;5016923;28;20030;-83
2021/10/04 05:20:57;;;;;;;36.03;20.80;;;6.70;90.10;;;;;;5016448;28;20037;-83
2021/10/04 05:23:23;;;;;;;30.08;20.40;;;6.80;90.10;;;;;;4982578;28;20081;-84
2021/10/04 05:25:49;;;;;;;36.28;20.88;;;6.80;90.00;;;;;;4997902;28;20030;-84
2021/10/04 05:28:15;;;;;;;38.55;21.63;;;6.80;89.90;;;;;;5016274;28;20022;-83
2021/10/04 05:30:40;;;;;;;33.20;19.20;;;6.90;89.90;;;;;;5017752;28;20034;-82
2021/10/04 05:33:07;;;;;;;36.10;19.92;;;7.00;89.70;;;;;;5018765;28;20026;-82
2021/10/04 05:35:32;;;;;;;38.40;19.40;;;7.00;89.20;;;;;;5016149;28;20034;-83
2021/10/04 05:37:58;;;;;;;34.80;18.70;;;7.00;88.90;;;;;;5015449;28;20539;-82
2021/10/04 05:40:25;;;;;;;37.00;20.40;;;7.10;88.70;;;;;;5003616;28;20029;-82
2021/10/04 05:42:51;;;;;;;30.55;20.38;;;7.10;88.60;;;;;;5019318;28;20551;-84
2021/10/04 05:45:17;;;;;;;34.80;19.23;;;7.20;88.50;;;;;;5020050;28;20112;-82
2021/10/04 05:47:44;;;;;;;27.15;17.58;;;7.20;88.30;;;;;;5019071;28;20022;-83
2021/10/04 05:50:11;;;;;;;27.80;15.70;;;7.30;87.80;;;;;;5016123;28;20038;-82
2021/10/04 05:52:37;;;;;;;34.42;17.60;;;7.30;87.70;;;;;;5016383;28;20022;-83
2021/10/04 05:55:05;;;;;;;25.52;17.77;;;7.40;87.30;;;;;;5016341;28;20036;-83
2021/10/04 05:57:31;;;;;;;26.95;18.40;;;7.50;87.20;;;;;;4998129;28;20026;-83
2021/10/04 05:59:57;;;;;;;28.58;18.05;;;7.50;86.70;;;;;;5016161;28;20045;-83
2021/10/04 06:02:23;;;;;;;33.97;16.80;;;7.60;86.50;;;;;;5016136;28;20471;-81
2021/10/04 06:04:49;;;;;;;28.65;15.70;;;7.70;86.00;;;;;;4997288;28;20391;-83
2021/10/04 06:07:14;;;;;;;23.42;15.85;;;7.70;85.70;;;;;;5016041;28;20100;-82
2021/10/04 06:09:40;;;;;;;26.67;16.98;;;7.80;85.50;;;;;;5016293;28;20034;-83
2021/10/04 06:12:06;;;;;;;28.08;14.48;;;7.80;85.30;;;;;;5016362;28;20018;-83
2021/10/04 06:14:32;;;;;;;28.52;17.88;;;7.90;85.40;;;;;;5016068;28;20510;-82
2021/10/04 06:17:00;;;;;;;26.50;15.43;;;8.00;85.10;;;;;;4998539;28;20053;-83
2021/10/04 06:19:26;;;;;;;;;;;8.10;84.80;;;;;;5016517;28;20033;-82
2021/10/04 06:21:53;;;;;;;24.73;13.60;;;8.20;84.80;;;;;;5015552;28;19905;-82
2021/10/04 06:24:19;;;;;;;25.80;15.38;;;8.20;83.60;;;;;;5015736;28;20519;-83
2021/10/04 06:26:45;;;;;;;21.58;14.73;;;8.20;83.40;;;;;;5000714;28;20030;-84
2021/10/04 06:29:12;;;;;;;21.45;14.00;;;8.20;83.50;;;;;;4996527;28;20041;-83
2021/10/04 06:31:38;;;;;;;28.35;14.35;;;8.30;83.10;;;;;;4997095;28;20376;-84
2021/10/04 06:34:04;;;;;;;29.27;14.25;;;8.30;83.00;;;;;;5001044;28;20109;-83
2021/10/04 06:36:30;;;;;;;26.25;15.18;;;8.40;82.70;;;;;;4979295;28;20018;-83
2021/10/04 06:38:56;;;;;;;26.42;12.40;;;8.40;82.50;;;;;;4997105;28;20030;-84
2021/10/04 06:41:22;;;;;;;23.48;13.85;;;8.40;81.80;;;;;;4998219;28;20030;-84
2021/10/04 06:43:47;;;;;;;25.75;13.38;;;8.50;81.70;;;;;;4979292;28;20030;-84
2021/10/04 06:46:13;;;;;;;24.65;14.65;;;8.50;81.30;;;;;;4980739;28;20502;-83
2021/10/04 06:48:40;;;;;;;21.45;14.02;;;8.60;81.50;;;;;;4996866;28;20026;-85
2021/10/04 06:51:06;;;;;;;25.35;16.33;;;8.60;81.30;;;;;;4978182;28;20034;-86
2021/10/04 06:53:33;;;;;;;21.00;14.63;;;8.70;81.20;;;;;;4978954;28;20030;-84
2021/10/04 06:55:59;;;;;;;21.75;15.20;;;8.90;80.60;;;;;;4995722;28;20034;-83
2021/10/04 06:58:25;;;;;;;17.23;12.25;;;9.00;81.30;;;;;;4992634;28;20034;-85
2021/10/04 07:00:54;;;;;;;31.45;15.55;;;9.00;79.60;;;;;;4994158;28;20042;-85
2021/10/04 07:03:21;;;;;;;22.95;15.10;;;9.00;79.50;;;;;;4996583;28;20026;-85
2021/10/04 07:05:48;;;;;;;26.52;16.25;;;9.20;79.20;;;;;;4995889;28;20420;-85
2021/10/04 07:08:14;;;;;;;27.33;17.50;;;9.30;79.10;;;;;;4994122;28;20041;-87
2021/10/04 07:10:40;;;;;;;34.63;20.00;;;9.50;78.80;;;;;;4999191;28;20121;-88
2021/10/04 07:13:06;;;;;;;36.47;20.20;;;9.70;78.40;;;;;;5002526;28;20065;-86
2021/10/04 07:15:32;;;;;;;27.65;20.08;;;9.80;78.30;;;;;;4999783;28;20428;-87
2021/10/04 07:17:58;;;;;;;38.60;21.90;;;9.90;77.80;;;;;;5006921;28;20046;-87
2021/10/04 07:20:23;;;;;;;34.53;21.10;;;10.10;77.80;;;;;;4984853;28;20116;-88
2021/10/04 07:22:50;;;;;;;28.77;20.42;;;10.90;78.60;;;;;;4978956;28;20029;-86
2021/10/04 07:25:15;;;;;;;34.08;19.92;;;12.30;74.40;;;;;;4993849;28;20022;-86
2021/10/04 07:27:42;;;;;;;36.33;22.30;;;13.80;69.60;;;;;;4996026;28;20460;-88
2021/10/04 07:30:08;;;;;;;30.65;21.02;;;15.20;64.40;;;;;;4997870;28;20117;-87
2021/10/04 07:32:34;;;;;;;35.63;22.73;;;16.50;60.40;;;;;;4999267;28;20387;-86
2021/10/04 07:35:00;;;;;;;32.97;23.02;;;17.60;56.70;;;;;;4995398;28;20117;-89
2021/10/04 07:37:26;;;;;;;31.63;20.55;;;18.40;53.90;;;;;;4996642;28;20030;-87
2021/10/04 07:39:54;;;;;;;33.40;21.45;;;18.90;51.50;;;;;;4995833;28;20428;-87
2021/10/04 07:42:20;;;;;;;34.55;20.50;;;19.10;50.30;;;;;;4996340;28;20018;-86
2021/10/04 07:44:46;;;;;;;32.22;20.73;;;19.60;49.20;;;;;;4979085;28;20045;-89
2021/10/04 07:47:12;;;;;;;29.40;19.70;;;20.40;47.40;;;;;;4995667;28;20415;-86
2021/10/04 07:49:37;;;;;;;32.03;20.88;;;20.90;45.70;;;;;;4977773;28;20092;-87
2021/10/04 07:52:04;;;;;;;27.30;19.52;;;21.10;45.40;;;;;;4995521;28;20034;-88
2021/10/04 07:54:30;;;;;;;29.27;17.17;;;21.50;43.80;;;;;;4996349;28;20022;-87
2021/10/04 07:56:56;;;;;;;25.67;18.55;;;21.50;43.10;;;;;;4996040;28;20030;-85
2021/10/04 07:59:22;;;;;;;29.10;19.17;;;21.30;42.30;;;;;;4997312;28;20030;-87
2021/10/04 08:01:48;;;;;;;31.95;19.85;;;21.70;42.10;;;;;;4999943;28;20109;-86
2021/10/04 08:04:14;;;;;;;32.10;18.65;;;22.40;40.90;;;;;;4996846;28;20081;-86
2021/10/04 08:06:40;;;;;;;24.40;19.23;;;22.90;40.30;;;;;;4978583;28;20061;-88
2021/10/04 08:09:06;;;;;;;28.20;19.42;;;23.60;39.40;;;;;;4995399;28;20038;-86
2021/10/04 08:11:31;;;;;;;30.55;18.73;;;24.20;37.90;;;;;;4996257;28;20030;-87
2021/10/04 08:13:57;;;;;;;26.80;18.30;;;24.20;37.20;;;;;;4994898;28;20369;-88
2021/10/04 08:16:23;;;;;;;30.23;19.42;;;24.50;37.30;;;;;;4978029;28;20026;-87
2021/10/04 08:18:53;;;;;;;26.35;20.25;;;24.70;36.70;;;;;;4999380;28;20026;-87
2021/10/04 08:21:30;;;;;;;27.05;18.70;;;25.00;36.70;;;;;;4979127;28;20029;-87
2021/10/04 08:23:56;;;;;;;27.77;19.95;;;25.40;36.50;;;;;;4995588;28;20018;-86
2021/10/04 08:26:22;;;;;;;31.48;18.42;;;25.70;35.60;;;;;;4997071;28;20030;-87
2021/10/04 08:28:48;;;;;;;24.58;18.17;;;25.60;34.90;;;;;;4997432;28;20054;-87
2021/10/04 08:31:14;;;;;;;27.30;20.30;;;25.60;34.60;;;;;;4995523;28;20105;-87
2021/10/04 08:33:42;;;;;;;28.15;19.30;;;25.40;34.80;;;;;;4994730;28;20050;-90
2021/10/04 08:36:08;;;;;;;26.38;18.60;;;25.30;35.40;;;;;;4995695;28;20026;-88
2021/10/04 08:38:34;;;;;;;24.08;18.50;;;25.30;35.10;;;;;;4977288;28;20022;-86
2021/10/04 08:41:05;;;;;;;25.23;16.58;;;25.20;34.60;;;;;;4979840;28;20019;-87
2021/10/04 08:43:31;;;;;;;24.98;18.52;;;25.20;34.70;;;;;;4997098;28;20022;-87
2021/10/04 08:46:00;;;;;;;19.00;16.37;;;25.10;34.40;;;;;;4999086;28;20026;-86
2021/10/04 08:48:27;;;;;;;20.60;17.27;;;25.10;34.50;;;;;;4996322;28;20279;-87
2021/10/04 08:50:55;;;;;;;19.58;13.70;;;25.20;34.40;;;;;;4979788;28;20412;-88
2021/10/04 08:53:21;;;;;;;19.67;13.05;;;25.20;34.20;;;;;;4997890;28;20046;-87
2021/10/04 08:55:47;;;;;;;14.45;12.38;;;25.40;34.20;;;;;;4995992;28;20030;-87
2021/10/04 08:58:15;;;;;;;16.65;12.70;;;25.90;33.20;;;;;;4995044;28;20431;-88
2021/10/04 09:00:41;;;;;;;17.23;11.93;;;25.70;32.60;;;;;;4994419;28;20137;-86
2021/10/04 09:03:07;;;;;;;12.90;11.38;;;25.60;33.00;;;;;;4977383;28;20117;-87
2021/10/04 09:05:33;;;;;;;14.98;11.40;;;26.20;32.70;;;;;;4994617;28;20026;-88
2021/10/04 09:08:15;;;;;;;17.25;13.27;;;26.90;32.10;;;;;;4995317;28;20392;-88
2021/10/04 09:10:49;;;;;;;21.95;13.50;;;27.00;32.10;;;;;;4977311;28;20046;-86
2021/10/04 09:13:17;;;;;;;17.35;13.32;;;26.80;31.40;;;;;;4995328;28;20491;-87
2021/10/04 09:15:51;;;;;;;18.30;14.75;;;27.20;31.60;;;;;;4995472;28;20488;-86
2021/10/04 09:18:30;;;;;;;17.73;13.65;;;27.70;31.20;;;;;;4994849;28;20026;-86
2021/10/04 09:21:02;;;;;;;16.75;13.68;;;26.50;31.10;;;;;;4994390;28;20423;-87
2021/10/04 09:23:43;;;;;;;16.95;14.30;;;25.80;32.00;;;;;;4994418;28;20444;-87
2021/10/04 09:26:10;;;;;;;18.08;14.93;;;25.50;33.00;;;;;;4978812;28;20069;-86
2021/10/04 09:28:39;;;;;;;20.75;15.07;;;25.80;33.10;;;;;;4980390;28;20026;-83
2021/10/04 09:31:18;;;;;;;17.02;14.38;;;26.30;32.10;;;;;;5009718;28;20065;-89
2021/10/04 09:34:14;;;;;;;20.35;16.30;;;25.60;32.50;;;;;;4987398;28;20026;-87
2021/10/04 09:36:51;;;;;;;22.73;15.40;;;24.10;33.80;;;;;;4980226;28;20034;-88
2021/10/04 09:39:29;;;;;;;21.73;17.05;;;22.70;35.70;;;;;;4980760;28;20046;-88
2021/10/04 09:42:04;;;;;;;23.60;17.75;;;21.40;37.10;;;;;;4998829;28;20100;-87
2021/10/04 09:44:47;;;;;;;26.02;18.25;;;20.10;39.80;;;;;;5000437;28;20026;-88
2021/10/04 09:47:34;;;;;;;25.88;17.05;;;19.30;41.00;;;;;;4999263;28;20503;-88
2021/10/04 09:50:11;;;;;;;21.13;14.98;;;18.50;42.20;;;;;;4998646;28;20045;-86
2021/10/04 09:52:46;;;;;;;27.25;16.70;;;17.80;43.70;;;;;;4998965;28;20357;-88
2021/10/04 09:55:35;;;;;;;19.45;12.93;;;17.40;44.80;;;;;;4981633;28;20054;-87
2021/10/04 09:58:14;;;;;;;22.80;15.05;;;17.70;44.80;;;;;;4998206;28;20098;-89
2021/10/04 10:00:52;;;;;;;19.77;13.63;;;18.50;43.90;;;;;;4980585;28;20061;-87
2021/10/04 10:03:21;;;;;;;16.63;12.80;;;18.10;42.80;;;;;;4998829;28;20069;-87
2021/10/04 10:05:56;;;;;;;30.70;16.05;;;18.40;43.70;;;;;;4981700;28;20034;-89
2021/10/04 10:08:25;;;;;;;20.90;15.60;;;18.60;43.30;;;;;;4980916;28;20042;-89
2021/10/04 10:10:54;;;;;;;20.65;14.18;;;18.30;43.10;;;;;;5018102;28;20069;-87
2021/10/04 10:13:23;;;;;;;22.02;14.05;;;17.80;43.40;;;;;;5002540;28;20022;-87
2021/10/04 10:16:10;;;;;;;18.42;13.80;;;16.90;44.90;;;;;;5021466;28;20029;-89
2021/10/04 10:18:47;;;;;;;23.05;13.57;;;16.30;46.60;;;;;;5029168;28;20030;-89
2021/10/04 10:21:29;;;;;;;17.85;13.18;;;16.40;47.10;;;;;;5012095;28;20101;-87
2021/10/04 10:23:59;;;;;;;20.80;13.70;;;15.80;47.60;;;;;;5023772;28;20061;-86
2021/10/04 10:26:39;;;;;;;21.92;13.82;;;15.30;49.40;;;;;;5020472;28;20034;-87
2021/10/04 10:29:17;;;;;;;21.02;15.35;;;15.30;49.50;;;;;;5023594;28;20525;-87
2021/10/04 10:31:52;;;;;;;21.98;15.93;;;15.30;50.00;;;;;;5001711;28;20084;-88
2021/10/04 10:34:32;;;;;;;23.20;15.85;;;15.10;49.90;;;;;;5020933;28;20437;-84
2021/10/04 10:37:06;;;;;;;24.48;16.33;;;14.80;50.80;;;;;;5019348;28;20456;-88
2021/10/04 10:39:41;;;;;;;19.13;13.73;;;14.50;52.00;;;;;;4999685;28;20029;-88
2021/10/04 10:42:34;;;;;;;18.08;13.38;;;14.30;52.20;;;;;;5006556;28;20025;-89
2021/10/04 10:45:00;;;;;;;17.17;13.82;;;14.20;51.90;;;;;;5000209;28;20361;-87
2021/10/04 10:47:35;;;;;;;20.40;13.07;;;14.00;52.60;;;;;;4999288;28;20026;-87
2021/10/04 10:50:16;;;;;;;16.08;12.57;;;14.10;52.80;;;;;;5016373;28;20046;-86
2021/10/04 10:53:01;;;;;;;22.25;14.95;;;13.90;52.60;;;;;;5016712;28;20038;-86
2021/10/04 10:55:31;;;;;;;19.25;14.25;;;13.80;52.70;;;;;;5016973;28;20489;-86
2021/10/04 10:58:07;;;;;;;21.42;13.73;;;13.90;53.30;;;;;;4998476;28;20034;-86
2021/10/04 11:00:39;;;;;;;21.60;14.10;;;13.90;52.70;;;;;;5015990;28;20187;-86
2021/10/04 11:03:21;;;;;;;18.90;14.50;;;13.50;53.40;;;;;;5016748;28;20032;-87
2021/10/04 11:05:50;;;;;;;19.40;13.88;;;13.50;54.20;;;;;;5017621;28;20080;-87
2021/10/04 11:08:20;;;;;;;20.75;15.73;;;13.40;54.00;;;;;;4999745;28;20026;-88
2021/10/04 11:10:49;;;;;;;21.40;14.68;;;13.50;54.10;;;;;;5004252;28;20033;-88
2021/10/04 11:13:26;;;;;;;22.00;15.55;;;13.70;53.90;;;;;;5002786;28;20502;-87
2021/10/04 11:15:56;;;;;;;17.58;11.25;;;13.70;54.00;;;;;;5000153;28;20133;-89
2021/10/04 11:18:23;;;;;;;20.15;13.85;;;13.40;54.00;;;;;;5001739;28;20053;-86
2021/10/04 11:21:11;;;;;;;20.88;14.07;;;13.20;55.00;;;;;;5018976;28;20022;-88
2021/10/04 11:23:46;;;;;;;18.70;11.90;;;13.30;55.10;;;;;;5015582;28;20130;-88
2021/10/04 11:26:18;;;;;;;18.20;11.77;;;13.60;53.70;;;;;;5019980;28;20391;-86
2021/10/04 11:28:48;;;;;;;16.40;11.38;;;13.50;54.00;;;;;;5008101;28;20029;-87
2021/10/04 11:31:19;;;;;;;15.57;11.75;;;13.70;53.50;;;;;;5018722;28;20109;-86
2021/10/04 11:33:58;;;;;;;22.00;14.98;;;13.90;53.10;;;;;;5001747;28;20106;-88
2021/10/04 11:36:30;;;;;;;21.75;14.45;;;13.90;53.50;;;;;;5017228;28;20049;-86
2021/10/04 11:39:24;;;;;;;21.77;12.93;;;14.00;53.40;;;;;;5015472;28;20020;-86
2021/10/04 11:41:54;;;;;;;21.17;14.25;;;14.20;54.00;;;;;;5015822;28;20029;-87
2021/10/04 11:44:23;;;;;;;21.95;15.20;;;14.40;53.20;;;;;;5015513;28;20029;-89
2021/10/04 11:46:53;;;;;;;22.27;15.18;;;14.70;52.60;;;;;;5021359;28;20026;-85
2021/10/04 11:49:24;;;;;;;23.92;15.23;;;14.80;52.00;;;;;;5006931;28;20320;-86
2021/10/04 11:51:52;;;;;;;19.35;14.48;;;14.80;51.00;;;;;;4998745;28;20041;-87
2021/10/04 11:54:30;;;;;;;20.13;14.85;;;14.50;51.20;;;;;;5015488;28;20022;-88
2021/10/04 11:56:56;;;;;;;21.35;14.43;;;14.30;52.20;;;;;;5015535;28;20034;-86
2021/10/04 11:59:22;;;;;;;25.05;16.48;;;14.10;52.30;;;;;;5016134;28;20165;-87
2021/10/04 12:01:48;;;;;;;22.02;14.68;;;14.10;52.60;;;;;;4998035;28;20061;-87
2021/10/04 12:04:15;;;;;;;23.38;15.15;;;14.00;53.00;;;;;;5015945;28;20101;-88
2021/10/04 12:06:43;;;;;;;22.83;15.57;;;14.00;53.10;;;;;;5015841;28;20026;-88
2021/10/04 12:09:23;;;;;;;24.17;15.98;;;14.00;53.20;;;;;;5015785;28;20038;-86
2021/10/04 12:11:58;;;;;;;24.95;15.55;;;13.90;53.80;;;;;;5016764;28;20018;-87
2021/10/04 12:14:27;;;;;;;22.58;15.55;;;14.00;54.60;;;;;;5001230;28;20022;-85
2021/10/04 12:16:59;;;;;;;23.52;15.60;;;14.00;53.40;;;;;;4997202;28;20049;-88
2021/10/04 12:19:26;;;;;;;19.00;14.98;;;13.90;53.80;;;;;;4977908;28;20372;-88
2021/10/04 12:21:55;;;;;;;20.50;14.07;;;14.00;53.90;;;;;;5017637;28;20139;-87
2021/10/04 12:24:23;;;;;;;19.15;13.15;;;13.80;53.80;;;;;;5016277;28;20104;-87
2021/10/04 12:27:09;;;;;;;22.63;14.55;;;13.70;54.30;;;;;;5016624;28;20032;-88
2021/10/04 12:29:37;;;;;;;28.70;14.10;;;13.50;54.90;;;;;;4998309;28;20037;-86
2021/10/04 12:32:21;;;;;;;;;;;13.40;54.90;;;;;;4998006;28;20062;-87
2021/10/04 12:35:06;;;;;;;15.43;10.90;;;13.50;54.80;;;;;;5017808;28;19913;-88
2021/10/04 12:37:38;;;;;;;23.77;13.07;;;13.70;54.50;;;;;;5009632;28;20049;-87
2021/10/04 12:40:31;;;;;;;21.10;14.13;;;13.40;54.90;;;;;;5009431;28;20121;-87